sensor_id;sensor_type;location;lat;lon;timestamp;P1;durP1;ratioP1;P2;durP2;ratioP2
51618;SDS011;38518;53.164;5.430;2022-10-16T00:01:59;8.55;;;2.30;;
51618;SDS011;38518;53.164;5.430;2022-10-16T00:04:25;6.00;;;2.20;;
51618;SDS011;38518;53.164;5.430;2022-10-16T00:06:51;8.68;;;2.33;;
51618;SDS011;38518;53.164;5.430;2022-10-16T00:09:16;4.60;;;2.10;;
51618;SDS011;38518;53.164;5.430;2022-10-16T00:11:42;5.95;;;2.00;;
51618;SDS011;38518;53.164;5.430;2022-10-16T00:14:12;7.18;;;2.22;;
51618;SDS011;38518;53.164;5.430;2022-10-16T00:16:40;6.28;;;2.00;;
51618;SDS011;38518;53.164;5.430;2022-10-16T00:19:06;7.20;;;2.20;;
51618;SDS011;38518;53.164;5.430;2022-10-16T00:21:32;8.88;;;2.65;;
51618;SDS011;38518;53.164;5.430;2022-10-16T00:23:59;8.93;;;2.25;;
51618;SDS011;38518;53.164;5.430;2022-10-16T00:26:30;8.77;;;2.65;;
51618;SDS011;38518;53.164;5.430;2022-10-16T00:28:58;5.15;;;1.98;;
51618;SDS011;38518;53.164;5.430;2022-10-16T00:31:24;5.65;;;2.13;;
51618;SDS011;38518;53.164;5.430;2022-10-16T00:33:50;6.10;;;2.33;;
51618;SDS011;38518;53.164;5.430;2022-10-16T00:36:18;7.47;;;2.75;;
51618;SDS011;38518;53.164;5.430;2022-10-16T00:38:46;7.25;;;2.20;;
51618;SDS011;38518;53.164;5.430;2022-10-16T00:41:14;6.88;;;2.60;;
51618;SDS011;38518;53.164;5.430;2022-10-16T00:43:52;6.45;;;2.35;;
51618;SDS011;38518;53.164;5.430;2022-10-16T00:46:21;6.20;;;2.40;;
51618;SDS011;38518;53.164;5.430;2022-10-16T00:49:12;6.22;;;2.30;;
51618;SDS011;38518;53.164;5.430;2022-10-16T00:51:41;8.55;;;2.42;;
51618;SDS011;38518;53.164;5.430;2022-10-16T00:54:13;7.18;;;1.98;;
51618;SDS011;38518;53.164;5.430;2022-10-16T00:56:44;8.27;;;2.13;;
51618;SDS011;38518;53.164;5.430;2022-10-16T00:59:16;5.20;;;1.95;;
51618;SDS011;38518;53.164;5.430;2022-10-16T01:01:45;5.43;;;1.77;;
51618;SDS011;38518;53.164;5.430;2022-10-16T01:04:11;5.60;;;1.75;;
51618;SDS011;38518;53.164;5.430;2022-10-16T01:09:37;4.80;;;1.63;;
51618;SDS011;38518;53.164;5.430;2022-10-16T01:12:10;5.22;;;1.58;;
51618;SDS011;38518;53.164;5.430;2022-10-16T01:17:43;5.45;;;1.80;;
51618;SDS011;38518;53.164;5.430;2022-10-16T01:29:07;7.47;;;1.85;;
51618;SDS011;38518;53.164;5.430;2022-10-16T01:31:40;3.28;;;1.75;;
51618;SDS011;38518;53.164;5.430;2022-10-16T01:34:15;6.75;;;1.92;;
51618;SDS011;38518;53.164;5.430;2022-10-16T01:37:00;5.13;;;2.25;;
51618;SDS011;38518;53.164;5.430;2022-10-16T01:39:32;6.82;;;1.92;;
51618;SDS011;38518;53.164;5.430;2022-10-16T01:42:15;6.22;;;2.05;;
51618;SDS011;38518;53.164;5.430;2022-10-16T01:44:46;7.60;;;2.38;;
51618;SDS011;38518;53.164;5.430;2022-10-16T01:47:13;7.00;;;1.80;;
51618;SDS011;38518;53.164;5.430;2022-10-16T01:49:40;8.25;;;2.30;;
51618;SDS011;38518;53.164;5.430;2022-10-16T01:52:09;9.65;;;2.60;;
51618;SDS011;38518;53.164;5.430;2022-10-16T01:54:39;10.88;;;2.53;;
51618;SDS011;38518;53.164;5.430;2022-10-16T01:57:07;8.05;;;2.55;;
51618;SDS011;38518;53.164;5.430;2022-10-16T01:59:35;7.78;;;2.55;;
51618;SDS011;38518;53.164;5.430;2022-10-16T02:02:08;7.03;;;2.67;;
51618;SDS011;38518;53.164;5.430;2022-10-16T02:04:42;5.65;;;2.22;;
51618;SDS011;38518;53.164;5.430;2022-10-16T02:07:14;7.53;;;1.77;;
51618;SDS011;38518;53.164;5.430;2022-10-16T02:09:41;6.88;;;1.95;;
51618;SDS011;38518;53.164;5.430;2022-10-16T02:12:10;7.88;;;2.03;;
51618;SDS011;38518;53.164;5.430;2022-10-16T02:14:40;8.63;;;2.70;;
51618;SDS011;38518;53.164;5.430;2022-10-16T02:17:14;9.38;;;2.60;;
51618;SDS011;38518;53.164;5.430;2022-10-16T02:19:42;9.52;;;2.75;;
51618;SDS011;38518;53.164;5.430;2022-10-16T02:22:14;10.23;;;2.97;;
51618;SDS011;38518;53.164;5.430;2022-10-16T02:24:50;7.88;;;2.20;;
51618;SDS011;38518;53.164;5.430;2022-10-16T02:29:57;8.02;;;2.03;;
51618;SDS011;38518;53.164;5.430;2022-10-16T02:32:32;11.18;;;2.35;;
51618;SDS011;38518;53.164;5.430;2022-10-16T02:34:59;6.43;;;2.40;;
51618;SDS011;38518;53.164;5.430;2022-10-16T02:37:26;6.38;;;2.35;;
51618;SDS011;38518;53.164;5.430;2022-10-16T02:39:53;4.78;;;2.13;;
51618;SDS011;38518;53.164;5.430;2022-10-16T02:42:20;8.85;;;2.50;;
51618;SDS011;38518;53.164;5.430;2022-10-16T02:44:52;5.85;;;2.40;;
51618;SDS011;38518;53.164;5.430;2022-10-16T02:47:17;6.70;;;2.38;;
51618;SDS011;38518;53.164;5.430;2022-10-16T02:49:43;5.95;;;2.42;;
51618;SDS011;38518;53.164;5.430;2022-10-16T02:52:09;6.75;;;2.58;;
51618;SDS011;38518;53.164;5.430;2022-10-16T02:54:34;6.00;;;2.42;;
51618;SDS011;38518;53.164;5.430;2022-10-16T02:57:00;4.75;;;2.28;;
51618;SDS011;38518;53.164;5.430;2022-10-16T02:59:26;7.05;;;2.53;;
51618;SDS011;38518;53.164;5.430;2022-10-16T03:01:51;7.13;;;3.03;;
51618;SDS011;38518;53.164;5.430;2022-10-16T03:04:17;6.20;;;2.80;;
51618;SDS011;38518;53.164;5.430;2022-10-16T03:06:43;5.97;;;3.00;;
51618;SDS011;38518;53.164;5.430;2022-10-16T03:09:09;3.38;;;2.30;;
51618;SDS011;38518;53.164;5.430;2022-10-16T03:11:34;3.75;;;2.58;;
51618;SDS011;38518;53.164;5.430;2022-10-16T03:14:00;6.13;;;3.00;;
51618;SDS011;38518;53.164;5.430;2022-10-16T03:16:26;6.53;;;2.70;;
51618;SDS011;38518;53.164;5.430;2022-10-16T03:18:51;4.60;;;2.60;;
51618;SDS011;38518;53.164;5.430;2022-10-16T03:21:17;4.25;;;2.47;;
51618;SDS011;38518;53.164;5.430;2022-10-16T03:23:43;5.55;;;2.70;;
51618;SDS011;38518;53.164;5.430;2022-10-16T03:26:08;6.85;;;2.45;;
51618;SDS011;38518;53.164;5.430;2022-10-16T03:28:34;6.53;;;2.50;;
51618;SDS011;38518;53.164;5.430;2022-10-16T03:31:00;6.40;;;2.97;;
51618;SDS011;38518;53.164;5.430;2022-10-16T03:33:25;5.45;;;2.85;;
51618;SDS011;38518;53.164;5.430;2022-10-16T03:35:54;6.55;;;2.85;;
51618;SDS011;38518;53.164;5.430;2022-10-16T03:38:20;4.75;;;2.65;;
51618;SDS011;38518;53.164;5.430;2022-10-16T03:40:46;7.68;;;2.58;;
51618;SDS011;38518;53.164;5.430;2022-10-16T03:43:12;5.20;;;2.05;;
51618;SDS011;38518;53.164;5.430;2022-10-16T03:45:38;7.30;;;2.30;;
51618;SDS011;38518;53.164;5.430;2022-10-16T03:48:05;3.50;;;2.13;;
51618;SDS011;38518;53.164;5.430;2022-10-16T03:50:31;6.63;;;1.92;;
51618;SDS011;38518;53.164;5.430;2022-10-16T03:52:56;3.90;;;1.90;;
51618;SDS011;38518;53.164;5.430;2022-10-16T03:55:22;4.75;;;2.30;;
51618;SDS011;38518;53.164;5.430;2022-10-16T03:57:48;10.18;;;2.45;;
51618;SDS011;38518;53.164;5.430;2022-10-16T04:00:14;7.20;;;2.20;;
51618;SDS011;38518;53.164;5.430;2022-10-16T04:02:39;7.97;;;2.38;;
51618;SDS011;38518;53.164;5.430;2022-10-16T04:05:06;7.63;;;2.67;;
51618;SDS011;38518;53.164;5.430;2022-10-16T04:07:32;6.00;;;2.35;;
51618;SDS011;38518;53.164;5.430;2022-10-16T04:09:58;6.20;;;2.13;;
51618;SDS011;38518;53.164;5.430;2022-10-16T04:12:24;4.88;;;2.20;;
51618;SDS011;38518;53.164;5.430;2022-10-16T04:14:50;4.55;;;2.67;;
51618;SDS011;38518;53.164;5.430;2022-10-16T04:17:16;6.78;;;2.38;;
51618;SDS011;38518;53.164;5.430;2022-10-16T04:19:42;6.95;;;2.30;;
51618;SDS011;38518;53.164;5.430;2022-10-16T04:22:08;5.10;;;2.25;;
51618;SDS011;38518;53.164;5.430;2022-10-16T04:24:33;8.57;;;2.50;;
51618;SDS011;38518;53.164;5.430;2022-10-16T04:26:59;6.18;;;2.10;;
51618;SDS011;38518;53.164;5.430;2022-10-16T04:29:25;7.55;;;1.92;;
51618;SDS011;38518;53.164;5.430;2022-10-16T04:31:51;6.93;;;2.28;;
51618;SDS011;38518;53.164;5.430;2022-10-16T04:34:17;7.35;;;2.53;;
51618;SDS011;38518;53.164;5.430;2022-10-16T04:36:43;8.25;;;2.58;;
51618;SDS011;38518;53.164;5.430;2022-10-16T04:39:08;6.28;;;2.40;;
51618;SDS011;38518;53.164;5.430;2022-10-16T04:41:34;5.78;;;2.20;;
51618;SDS011;38518;53.164;5.430;2022-10-16T04:44:00;6.13;;;2.22;;
51618;SDS011;38518;53.164;5.430;2022-10-16T04:46:25;6.75;;;2.58;;
51618;SDS011;38518;53.164;5.430;2022-10-16T04:48:51;7.22;;;2.83;;
51618;SDS011;38518;53.164;5.430;2022-10-16T04:51:17;6.65;;;1.98;;
51618;SDS011;38518;53.164;5.430;2022-10-16T04:53:43;8.48;;;2.22;;
51618;SDS011;38518;53.164;5.430;2022-10-16T04:56:09;8.13;;;2.80;;
51618;SDS011;38518;53.164;5.430;2022-10-16T04:58:35;5.40;;;1.95;;
51618;SDS011;38518;53.164;5.430;2022-10-16T05:01:01;9.52;;;2.67;;
51618;SDS011;38518;53.164;5.430;2022-10-16T05:03:26;9.75;;;2.55;;
51618;SDS011;38518;53.164;5.430;2022-10-16T05:05:52;7.53;;;2.33;;
51618;SDS011;38518;53.164;5.430;2022-10-16T05:08:18;8.15;;;2.58;;
51618;SDS011;38518;53.164;5.430;2022-10-16T05:10:44;9.40;;;2.70;;
51618;SDS011;38518;53.164;5.430;2022-10-16T05:13:10;8.00;;;2.28;;
51618;SDS011;38518;53.164;5.430;2022-10-16T05:15:36;6.50;;;2.08;;
51618;SDS011;38518;53.164;5.430;2022-10-16T05:18:02;7.35;;;2.05;;
51618;SDS011;38518;53.164;5.430;2022-10-16T05:20:28;6.43;;;2.10;;
51618;SDS011;38518;53.164;5.430;2022-10-16T05:22:54;7.40;;;2.40;;
51618;SDS011;38518;53.164;5.430;2022-10-16T05:25:19;5.50;;;2.80;;
51618;SDS011;38518;53.164;5.430;2022-10-16T05:27:48;5.57;;;2.50;;
51618;SDS011;38518;53.164;5.430;2022-10-16T05:30:15;5.93;;;2.60;;
51618;SDS011;38518;53.164;5.430;2022-10-16T05:32:45;3.72;;;2.20;;
51618;SDS011;38518;53.164;5.430;2022-10-16T05:35:12;5.63;;;2.70;;
51618;SDS011;38518;53.164;5.430;2022-10-16T05:37:38;5.57;;;2.80;;
51618;SDS011;38518;53.164;5.430;2022-10-16T05:40:04;7.35;;;3.22;;
51618;SDS011;38518;53.164;5.430;2022-10-16T05:42:30;5.40;;;3.10;;
51618;SDS011;38518;53.164;5.430;2022-10-16T05:44:56;6.53;;;3.67;;
51618;SDS011;38518;53.164;5.430;2022-10-16T05:47:22;6.22;;;3.30;;
51618;SDS011;38518;53.164;5.430;2022-10-16T05:49:47;7.80;;;3.70;;
51618;SDS011;38518;53.164;5.430;2022-10-16T05:52:13;6.13;;;3.13;;
51618;SDS011;38518;53.164;5.430;2022-10-16T05:54:39;9.98;;;3.40;;
51618;SDS011;38518;53.164;5.430;2022-10-16T05:57:04;6.15;;;2.70;;
51618;SDS011;38518;53.164;5.430;2022-10-16T05:59:31;7.40;;;2.92;;
51618;SDS011;38518;53.164;5.430;2022-10-16T06:01:57;10.30;;;3.22;;
51618;SDS011;38518;53.164;5.430;2022-10-16T06:04:22;5.72;;;2.17;;
51618;SDS011;38518;53.164;5.430;2022-10-16T06:06:48;8.77;;;3.00;;
51618;SDS011;38518;53.164;5.430;2022-10-16T06:09:14;7.57;;;2.78;;
51618;SDS011;38518;53.164;5.430;2022-10-16T06:11:40;5.55;;;2.70;;
51618;SDS011;38518;53.164;5.430;2022-10-16T06:14:05;4.75;;;2.80;;
51618;SDS011;38518;53.164;5.430;2022-10-16T06:16:35;9.05;;;3.28;;
51618;SDS011;38518;53.164;5.430;2022-10-16T06:19:02;5.93;;;3.10;;
51618;SDS011;38518;53.164;5.430;2022-10-16T06:21:31;8.68;;;3.33;;
51618;SDS011;38518;53.164;5.430;2022-10-16T06:23:57;6.45;;;2.90;;
51618;SDS011;38518;53.164;5.430;2022-10-16T06:26:27;6.35;;;3.33;;
51618;SDS011;38518;53.164;5.430;2022-10-16T06:28:54;8.85;;;3.85;;
51618;SDS011;38518;53.164;5.430;2022-10-16T06:31:21;8.23;;;2.90;;
51618;SDS011;38518;53.164;5.430;2022-10-16T06:33:52;6.55;;;3.25;;
51618;SDS011;38518;53.164;5.430;2022-10-16T06:36:19;7.32;;;2.88;;
51618;SDS011;38518;53.164;5.430;2022-10-16T06:38:45;10.40;;;2.75;;
51618;SDS011;38518;53.164;5.430;2022-10-16T06:41:11;11.13;;;2.70;;
51618;SDS011;38518;53.164;5.430;2022-10-16T06:43:41;8.15;;;2.90;;
51618;SDS011;38518;53.164;5.430;2022-10-16T06:46:09;7.57;;;2.33;;
51618;SDS011;38518;53.164;5.430;2022-10-16T06:48:36;10.50;;;2.80;;
51618;SDS011;38518;53.164;5.430;2022-10-16T06:51:04;7.55;;;2.90;;
51618;SDS011;38518;53.164;5.430;2022-10-16T06:53:33;8.68;;;2.63;;
51618;SDS011;38518;53.164;5.430;2022-10-16T06:56:10;7.20;;;2.35;;
51618;SDS011;38518;53.164;5.430;2022-10-16T06:58:38;7.22;;;2.35;;
51618;SDS011;38518;53.164;5.430;2022-10-16T07:01:04;6.25;;;2.40;;
51618;SDS011;38518;53.164;5.430;2022-10-16T07:03:30;5.80;;;2.33;;
51618;SDS011;38518;53.164;5.430;2022-10-16T07:05:57;8.82;;;3.13;;
51618;SDS011;38518;53.164;5.430;2022-10-16T07:08:26;7.45;;;2.50;;
51618;SDS011;38518;53.164;5.430;2022-10-16T07:11:01;8.38;;;2.70;;
51618;SDS011;38518;53.164;5.430;2022-10-16T07:13:28;7.40;;;2.50;;
51618;SDS011;38518;53.164;5.430;2022-10-16T07:15:54;5.07;;;2.03;;
51618;SDS011;38518;53.164;5.430;2022-10-16T07:18:20;6.35;;;2.30;;
51618;SDS011;38518;53.164;5.430;2022-10-16T07:20:46;8.15;;;2.72;;
51618;SDS011;38518;53.164;5.430;2022-10-16T07:23:12;5.55;;;2.03;;
51618;SDS011;38518;53.164;5.430;2022-10-16T07:25:38;5.63;;;2.20;;
51618;SDS011;38518;53.164;5.430;2022-10-16T07:28:04;6.05;;;2.10;;
51618;SDS011;38518;53.164;5.430;2022-10-16T07:30:29;9.70;;;2.78;;
51618;SDS011;38518;53.164;5.430;2022-10-16T07:32:55;5.78;;;1.80;;
51618;SDS011;38518;53.164;5.430;2022-10-16T07:35:20;7.10;;;2.15;;
51618;SDS011;38518;53.164;5.430;2022-10-16T07:37:46;6.30;;;2.17;;
51618;SDS011;38518;53.164;5.430;2022-10-16T07:40:12;5.63;;;2.45;;
51618;SDS011;38518;53.164;5.430;2022-10-16T07:42:38;6.22;;;2.50;;
51618;SDS011;38518;53.164;5.430;2022-10-16T07:45:03;10.98;;;2.72;;
51618;SDS011;38518;53.164;5.430;2022-10-16T07:47:30;7.25;;;2.67;;
51618;SDS011;38518;53.164;5.430;2022-10-16T07:49:55;5.70;;;2.63;;
51618;SDS011;38518;53.164;5.430;2022-10-16T07:52:21;6.78;;;2.55;;
51618;SDS011;38518;53.164;5.430;2022-10-16T07:54:47;6.55;;;2.72;;
51618;SDS011;38518;53.164;5.430;2022-10-16T07:57:12;5.65;;;2.30;;
51618;SDS011;38518;53.164;5.430;2022-10-16T07:59:44;6.70;;;2.47;;
51618;SDS011;38518;53.164;5.430;2022-10-16T08:02:11;6.18;;;2.25;;
51618;SDS011;38518;53.164;5.430;2022-10-16T08:04:37;9.18;;;2.53;;
51618;SDS011;38518;53.164;5.430;2022-10-16T08:07:02;10.95;;;2.92;;
51618;SDS011;38518;53.164;5.430;2022-10-16T08:09:28;12.38;;;2.85;;
51618;SDS011;38518;53.164;5.430;2022-10-16T08:11:54;6.70;;;2.95;;
51618;SDS011;38518;53.164;5.430;2022-10-16T08:14:20;12.57;;;3.78;;
51618;SDS011;38518;53.164;5.430;2022-10-16T08:16:46;18.45;;;4.00;;
51618;SDS011;38518;53.164;5.430;2022-10-16T08:19:11;12.82;;;2.90;;
51618;SDS011;38518;53.164;5.430;2022-10-16T08:21:37;16.02;;;3.47;;
51618;SDS011;38518;53.164;5.430;2022-10-16T08:24:03;11.50;;;3.20;;
51618;SDS011;38518;53.164;5.430;2022-10-16T08:26:29;15.43;;;3.47;;
51618;SDS011;38518;53.164;5.430;2022-10-16T08:28:55;16.45;;;3.80;;
51618;SDS011;38518;53.164;5.430;2022-10-16T08:31:21;11.93;;;3.47;;
51618;SDS011;38518;53.164;5.430;2022-10-16T08:33:47;13.02;;;3.33;;
51618;SDS011;38518;53.164;5.430;2022-10-16T08:36:13;11.85;;;3.15;;
51618;SDS011;38518;53.164;5.430;2022-10-16T08:38:40;7.28;;;2.20;;
51618;SDS011;38518;53.164;5.430;2022-10-16T08:44:01;7.80;;;2.45;;
51618;SDS011;38518;53.164;5.430;2022-10-16T08:47:06;5.50;;;2.17;;
51618;SDS011;38518;53.164;5.430;2022-10-16T08:49:32;4.82;;;2.08;;
51618;SDS011;38518;53.164;5.430;2022-10-16T08:51:58;5.50;;;2.33;;
51618;SDS011;38518;53.164;5.430;2022-10-16T08:57:00;4.85;;;2.30;;
51618;SDS011;38518;53.164;5.430;2022-10-16T08:59:42;7.70;;;2.30;;
51618;SDS011;38518;53.164;5.430;2022-10-16T09:02:52;7.53;;;2.15;;
51618;SDS011;38518;53.164;5.430;2022-10-16T09:05:24;7.95;;;2.13;;
51618;SDS011;38518;53.164;5.430;2022-10-16T09:13:47;13.43;;;3.95;;
51618;SDS011;38518;53.164;5.430;2022-10-16T09:19:33;13.07;;;3.58;;
51618;SDS011;38518;53.164;5.430;2022-10-16T09:22:14;15.82;;;3.95;;
51618;SDS011;38518;53.164;5.430;2022-10-16T09:24:41;20.77;;;4.70;;
51618;SDS011;38518;53.164;5.430;2022-10-16T09:27:11;19.35;;;3.88;;
51618;SDS011;38518;53.164;5.430;2022-10-16T09:29:39;15.43;;;4.20;;
51618;SDS011;38518;53.164;5.430;2022-10-16T09:32:15;16.27;;;3.97;;
51618;SDS011;38518;53.164;5.430;2022-10-16T09:34:52;18.08;;;4.18;;
51618;SDS011;38518;53.164;5.430;2022-10-16T09:37:21;13.75;;;3.17;;
51618;SDS011;38518;53.164;5.430;2022-10-16T09:39:50;11.95;;;3.38;;
51618;SDS011;38518;53.164;5.430;2022-10-16T09:42:27;14.98;;;3.08;;
51618;SDS011;38518;53.164;5.430;2022-10-16T09:44:57;20.13;;;3.45;;
51618;SDS011;38518;53.164;5.430;2022-10-16T09:47:23;9.48;;;3.10;;
51618;SDS011;38518;53.164;5.430;2022-10-16T09:49:56;12.65;;;3.40;;
51618;SDS011;38518;53.164;5.430;2022-10-16T09:52:30;13.15;;;3.35;;
51618;SDS011;38518;53.164;5.430;2022-10-16T09:55:01;10.80;;;2.85;;
51618;SDS011;38518;53.164;5.430;2022-10-16T09:57:48;14.25;;;3.13;;
51618;SDS011;38518;53.164;5.430;2022-10-16T10:00:17;16.40;;;3.55;;
51618;SDS011;38518;53.164;5.430;2022-10-16T10:02:44;12.35;;;3.25;;
51618;SDS011;38518;53.164;5.430;2022-10-16T10:05:18;17.80;;;3.65;;
51618;SDS011;38518;53.164;5.430;2022-10-16T10:07:44;14.30;;;4.25;;
51618;SDS011;38518;53.164;5.430;2022-10-16T10:10:21;11.15;;;3.63;;
51618;SDS011;38518;53.164;5.430;2022-10-16T10:12:49;11.23;;;3.42;;
51618;SDS011;38518;53.164;5.430;2022-10-16T10:15:15;13.35;;;3.38;;
51618;SDS011;38518;53.164;5.430;2022-10-16T10:20:24;10.77;;;3.17;;
51618;SDS011;38518;53.164;5.430;2022-10-16T10:22:56;12.25;;;3.28;;
51618;SDS011;38518;53.164;5.430;2022-10-16T10:25:36;10.05;;;2.90;;
51618;SDS011;38518;53.164;5.430;2022-10-16T10:38:43;11.38;;;3.13;;
51618;SDS011;38518;53.164;5.430;2022-10-16T10:54:53;13.50;;;2.72;;
51618;SDS011;38518;53.164;5.430;2022-10-16T10:57:48;11.88;;;3.53;;
51618;SDS011;38518;53.164;5.430;2022-10-16T11:00:28;8.40;;;2.60;;
51618;SDS011;38518;53.164;5.430;2022-10-16T11:11:32;10.30;;;2.80;;
51618;SDS011;38518;53.164;5.430;2022-10-16T11:27:22;10.07;;;2.83;;
51618;SDS011;38518;53.164;5.430;2022-10-16T11:30:01;6.72;;;2.13;;
51618;SDS011;38518;53.164;5.430;2022-10-16T11:32:44;9.07;;;2.72;;
51618;SDS011;38518;53.164;5.430;2022-10-16T11:35:22;7.32;;;2.22;;
51618;SDS011;38518;53.164;5.430;2022-10-16T11:37:55;6.55;;;2.30;;
51618;SDS011;38518;53.164;5.430;2022-10-16T11:40:31;5.30;;;2.17;;
51618;SDS011;38518;53.164;5.430;2022-10-16T11:43:06;8.25;;;2.50;;
51618;SDS011;38518;53.164;5.430;2022-10-16T11:45:44;9.15;;;2.80;;
51618;SDS011;38518;53.164;5.430;2022-10-16T11:53:52;7.10;;;2.10;;
51618;SDS011;38518;53.164;5.430;2022-10-16T11:56:19;7.53;;;2.80;;
51618;SDS011;38518;53.164;5.430;2022-10-16T11:58:57;7.25;;;2.45;;
51618;SDS011;38518;53.164;5.430;2022-10-16T12:01:32;8.38;;;2.67;;
51618;SDS011;38518;53.164;5.430;2022-10-16T12:09:30;7.00;;;2.10;;
51618;SDS011;38518;53.164;5.430;2022-10-16T12:11:57;7.47;;;2.20;;
51618;SDS011;38518;53.164;5.430;2022-10-16T12:17:02;7.93;;;2.45;;
51618;SDS011;38518;53.164;5.430;2022-10-16T12:20:01;6.60;;;2.50;;
51618;SDS011;38518;53.164;5.430;2022-10-16T12:22:36;6.32;;;2.55;;
51618;SDS011;38518;53.164;5.430;2022-10-16T12:25:32;9.77;;;2.72;;
51618;SDS011;38518;53.164;5.430;2022-10-16T12:30:41;9.82;;;2.55;;
51618;SDS011;38518;53.164;5.430;2022-10-16T12:36:32;7.53;;;2.35;;
51618;SDS011;38518;53.164;5.430;2022-10-16T12:38:59;8.13;;;2.30;;
51618;SDS011;38518;53.164;5.430;2022-10-16T12:41:30;8.85;;;1.95;;
51618;SDS011;38518;53.164;5.430;2022-10-16T12:43:57;8.65;;;2.67;;
51618;SDS011;38518;53.164;5.430;2022-10-16T12:49:32;10.75;;;3.28;;
51618;SDS011;38518;53.164;5.430;2022-10-16T12:52:03;9.02;;;2.75;;
51618;SDS011;38518;53.164;5.430;2022-10-16T12:54:36;8.88;;;3.00;;
51618;SDS011;38518;53.164;5.430;2022-10-16T13:00:11;8.07;;;2.42;;
51618;SDS011;38518;53.164;5.430;2022-10-16T13:21:51;10.60;;;2.47;;
51618;SDS011;38518;53.164;5.430;2022-10-16T13:24:23;6.57;;;1.92;;
51618;SDS011;38518;53.164;5.430;2022-10-16T13:29:52;6.47;;;1.95;;
51618;SDS011;38518;53.164;5.430;2022-10-16T13:32:25;5.85;;;1.92;;
51618;SDS011;38518;53.164;5.430;2022-10-16T13:34:52;9.00;;;2.53;;
51618;SDS011;38518;53.164;5.430;2022-10-16T13:37:20;8.80;;;2.72;;
51618;SDS011;38518;53.164;5.430;2022-10-16T13:39:47;10.68;;;2.70;;
51618;SDS011;38518;53.164;5.430;2022-10-16T13:44:52;9.48;;;2.42;;
51618;SDS011;38518;53.164;5.430;2022-10-16T13:47:24;8.75;;;2.55;;
51618;SDS011;38518;53.164;5.430;2022-10-16T13:52:29;8.23;;;1.70;;
51618;SDS011;38518;53.164;5.430;2022-10-16T13:54:58;8.85;;;2.63;;
51618;SDS011;38518;53.164;5.430;2022-10-16T13:57:24;10.55;;;2.50;;
51618;SDS011;38518;53.164;5.430;2022-10-16T13:59:50;6.90;;;2.28;;
51618;SDS011;38518;53.164;5.430;2022-10-16T14:02:19;8.43;;;2.50;;
51618;SDS011;38518;53.164;5.430;2022-10-16T14:04:56;5.80;;;2.13;;
51618;SDS011;38518;53.164;5.430;2022-10-16T14:07:27;11.00;;;2.90;;
51618;SDS011;38518;53.164;5.430;2022-10-16T14:09:57;8.55;;;2.20;;
51618;SDS011;38518;53.164;5.430;2022-10-16T14:12:28;8.75;;;2.65;;
51618;SDS011;38518;53.164;5.430;2022-10-16T14:14:54;7.65;;;2.30;;
51618;SDS011;38518;53.164;5.430;2022-10-16T14:17:23;6.63;;;2.10;;
51618;SDS011;38518;53.164;5.430;2022-10-16T14:19:52;10.98;;;2.33;;
51618;SDS011;38518;53.164;5.430;2022-10-16T14:22:26;6.20;;;2.50;;
51618;SDS011;38518;53.164;5.430;2022-10-16T14:24:57;4.95;;;1.90;;
51618;SDS011;38518;53.164;5.430;2022-10-16T14:27:29;6.68;;;2.83;;
51618;SDS011;38518;53.164;5.430;2022-10-16T14:32:34;5.95;;;2.15;;
51618;SDS011;38518;53.164;5.430;2022-10-16T14:35:00;6.10;;;2.45;;
51618;SDS011;38518;53.164;5.430;2022-10-16T14:37:27;6.80;;;2.28;;
51618;SDS011;38518;53.164;5.430;2022-10-16T14:39:54;7.00;;;2.50;;
51618;SDS011;38518;53.164;5.430;2022-10-16T14:42:21;8.10;;;2.95;;
51618;SDS011;38518;53.164;5.430;2022-10-16T14:44:50;12.45;;;3.80;;
51618;SDS011;38518;53.164;5.430;2022-10-16T14:47:21;9.15;;;3.55;;
51618;SDS011;38518;53.164;5.430;2022-10-16T14:49:54;6.57;;;3.08;;
51618;SDS011;38518;53.164;5.430;2022-10-16T14:52:21;11.52;;;3.10;;
51618;SDS011;38518;53.164;5.430;2022-10-16T14:54:50;9.55;;;2.75;;
51618;SDS011;38518;53.164;5.430;2022-10-16T14:57:20;7.55;;;2.30;;
51618;SDS011;38518;53.164;5.430;2022-10-16T14:59:48;11.65;;;2.78;;
51618;SDS011;38518;53.164;5.430;2022-10-16T15:04:47;10.75;;;2.97;;
51618;SDS011;38518;53.164;5.430;2022-10-16T15:07:13;9.60;;;2.60;;
51618;SDS011;38518;53.164;5.430;2022-10-16T15:09:39;11.32;;;3.10;;
51618;SDS011;38518;53.164;5.430;2022-10-16T15:12:05;8.23;;;2.28;;
51618;SDS011;38518;53.164;5.430;2022-10-16T15:14:30;13.35;;;3.00;;
51618;SDS011;38518;53.164;5.430;2022-10-16T15:16:56;10.02;;;2.67;;
51618;SDS011;38518;53.164;5.430;2022-10-16T15:19:22;11.40;;;2.67;;
51618;SDS011;38518;53.164;5.430;2022-10-16T15:21:48;9.13;;;2.70;;
51618;SDS011;38518;53.164;5.430;2022-10-16T15:24:14;12.80;;;2.97;;
51618;SDS011;38518;53.164;5.430;2022-10-16T15:26:40;8.50;;;2.50;;
51618;SDS011;38518;53.164;5.430;2022-10-16T15:29:06;10.07;;;2.55;;
51618;SDS011;38518;53.164;5.430;2022-10-16T15:31:33;11.45;;;2.97;;
51618;SDS011;38518;53.164;5.430;2022-10-16T15:33:59;11.00;;;2.97;;
51618;SDS011;38518;53.164;5.430;2022-10-16T15:36:31;9.88;;;2.53;;
51618;SDS011;38518;53.164;5.430;2022-10-16T15:39:05;11.63;;;2.70;;
51618;SDS011;38518;53.164;5.430;2022-10-16T15:41:37;13.88;;;2.97;;
51618;SDS011;38518;53.164;5.430;2022-10-16T15:44:03;10.48;;;2.70;;
51618;SDS011;38518;53.164;5.430;2022-10-16T15:46:29;8.60;;;2.88;;
51618;SDS011;38518;53.164;5.430;2022-10-16T15:48:57;12.07;;;3.15;;
51618;SDS011;38518;53.164;5.430;2022-10-16T15:51:24;10.77;;;2.33;;
51618;SDS011;38518;53.164;5.430;2022-10-16T15:53:52;9.23;;;2.97;;
51618;SDS011;38518;53.164;5.430;2022-10-16T15:56:18;15.95;;;3.42;;
51618;SDS011;38518;53.164;5.430;2022-10-16T15:58:44;11.35;;;2.40;;
51618;SDS011;38518;53.164;5.430;2022-10-16T16:01:10;9.15;;;2.85;;
51618;SDS011;38518;53.164;5.430;2022-10-16T16:03:37;13.52;;;3.17;;
51618;SDS011;38518;53.164;5.430;2022-10-16T16:06:06;9.85;;;2.40;;
51618;SDS011;38518;53.164;5.430;2022-10-16T16:08:34;9.73;;;2.55;;
51618;SDS011;38518;53.164;5.430;2022-10-16T16:11:01;10.90;;;2.67;;
51618;SDS011;38518;53.164;5.430;2022-10-16T16:13:34;6.88;;;2.08;;
51618;SDS011;38518;53.164;5.430;2022-10-16T16:16:13;9.95;;;3.10;;
51618;SDS011;38518;53.164;5.430;2022-10-16T16:18:40;12.52;;;3.58;;
51618;SDS011;38518;53.164;5.430;2022-10-16T16:21:07;10.68;;;3.40;;
51618;SDS011;38518;53.164;5.430;2022-10-16T16:23:34;9.02;;;2.88;;
51618;SDS011;38518;53.164;5.430;2022-10-16T16:26:07;10.57;;;3.67;;
51618;SDS011;38518;53.164;5.430;2022-10-16T16:28:37;13.60;;;3.20;;
51618;SDS011;38518;53.164;5.430;2022-10-16T16:31:03;18.00;;;3.47;;
51618;SDS011;38518;53.164;5.430;2022-10-16T16:33:30;10.38;;;2.70;;
51618;SDS011;38518;53.164;5.430;2022-10-16T16:36:00;14.18;;;3.40;;
51618;SDS011;38518;53.164;5.430;2022-10-16T16:38:27;10.75;;;2.83;;
51618;SDS011;38518;53.164;5.430;2022-10-16T16:40:54;11.02;;;3.22;;
51618;SDS011;38518;53.164;5.430;2022-10-16T16:43:26;10.38;;;2.90;;
51618;SDS011;38518;53.164;5.430;2022-10-16T16:45:53;9.65;;;3.17;;
51618;SDS011;38518;53.164;5.430;2022-10-16T16:48:20;11.98;;;3.35;;
51618;SDS011;38518;53.164;5.430;2022-10-16T16:50:46;14.10;;;2.70;;
51618;SDS011;38518;53.164;5.430;2022-10-16T16:53:12;10.13;;;3.00;;
51618;SDS011;38518;53.164;5.430;2022-10-16T16:55:38;10.45;;;4.13;;
51618;SDS011;38518;53.164;5.430;2022-10-16T16:58:04;14.45;;;5.05;;
51618;SDS011;38518;53.164;5.430;2022-10-16T17:00:30;12.52;;;5.20;;
51618;SDS011;38518;53.164;5.430;2022-10-16T17:02:56;13.68;;;5.25;;
51618;SDS011;38518;53.164;5.430;2022-10-16T17:05:22;14.77;;;4.38;;
51618;SDS011;38518;53.164;5.430;2022-10-16T17:07:48;13.77;;;4.38;;
51618;SDS011;38518;53.164;5.430;2022-10-16T17:10:14;13.02;;;4.80;;
51618;SDS011;38518;53.164;5.430;2022-10-16T17:12:40;11.20;;;3.70;;